No particular awareness of the weather is required.    There are no Weather-warnings


Ulpukkaniemi more information Ulpukkaniemi


Yksityisiä sääasemia lähellä:

Template documentation
and downloads

And another site


Löydät sääaseman tiedot myös:

European Weather Network



Weather Underground säähistoriasivu

Päivittäin yhteenveto Syyskuu 24, 2018 Yksiköt:  Metriset    Englantilaiset   Molemmat
« Edellinen Päivä
Seuraava Päivä »
Päivittäin Viikoittain Kuukausittain Vuosittain Mukautettu
  Tämänhetkinen: Korkea: Matala: Keskiarvo:
Lämpötila: -1.1 °C -17.8 °C -5.4 °C -3.4 °C
Kastepiste: -10.4 °C -17.8 °C -10.4 °C -7.4 °C
Kosteus: 36 % Humidity % 36 % 66 %
Tuulen nopeus: 12.9 km/h 0 km/h 0 km/h 4.7 km/h
Tuulenpuuska: 23.3 km/h 0 km/h - -
Tuuli:East - - SW
Ilmanpaine: 34510.1 hPa 0 hPa 34500 hPa -
Sade: 0 mm      
Historical Graphs
 
 
Taulukkotiedot Syyskuu 24, 2018
Aika Lämpötila Kastepiste Ilmanpaine Tuuli Tuulen nopeus Tuulenpuuska Kosteus Sademäärä (tunneittain)
-17.8 °C -17.8 °C 0 hPa Calm     Humidity % 0 mm
00:04 -3.8 °C -5.6 °C 34560.9 hPa Calm   5.1 km/h 83 % 0 mm
00:09 -3.9 °C -5.6 °C 34557.5 hPa NNW 2.6 km/h 5.1 km/h 83 % 0 mm
00:14 -3.9 °C -5.7 °C 34557.5 hPa NNW 2.6 km/h 5.1 km/h 83 % 0 mm
00:19 -3.9 °C -5.7 °C 34557.5 hPa Calm   2.6 km/h 83 % 0 mm
00:24 -3.9 °C -5.5 °C 34557.5 hPa Calm     84 % 0 mm
00:29 -3.8 °C -5.4 °C 34557.5 hPa Calm     84 % 0 mm
00:34 -3.7 °C -5.3 °C 34554.1 hPa Calm   2.6 km/h 84 % 0 mm
00:40 -3.8 °C -5.4 °C 34557.5 hPa Calm   2.6 km/h 84 % 0 mm
00:44 -3.8 °C -5.5 °C 34554.1 hPa Calm   2.6 km/h 83 % 0 mm
00:50 -4 °C -5.8 °C 34554.1 hPa Calm   2.6 km/h 82 % 0 mm
00:54 -4.2 °C -6 °C 34554.1 hPa Calm   2.6 km/h 82 % 0 mm
00:59 -4.3 °C -6.1 °C 34557.5 hPa Calm   2.6 km/h 82 % 0 mm
01:04 -4.3 °C -6.2 °C 34557.5 hPa Calm   2.6 km/h 82 % 0 mm
01:09 -4.3 °C -6.2 °C 34557.5 hPa Calm   2.6 km/h 82 % 0 mm
01:14 -4.4 °C -6.2 °C 34550.7 hPa Calm     82 % 0 mm
01:19 -4.4 °C -6.2 °C 34554.1 hPa Calm     82 % 0 mm
01:24 -4.4 °C -6.2 °C 34550.7 hPa Calm     82 % 0 mm
01:30 -4.3 °C -6.2 °C 34550.7 hPa Calm     82 % 0 mm
01:34 -4.3 °C -6.1 °C 34554.1 hPa Calm     82 % 0 mm
01:40 -4.3 °C -6.1 °C 34550.7 hPa Calm   5.1 km/h 82 % 0 mm
01:44 -4.3 °C -6.1 °C 34550.7 hPa Calm   5.1 km/h 82 % 0 mm
01:50 -4.2 °C -6.1 °C 34547.4 hPa Calm   2.6 km/h 82 % 0 mm
01:54 -4.2 °C -6.1 °C 34547.4 hPa Calm   2.6 km/h 82 % 0 mm
01:59 -4.2 °C -6.1 °C 34547.4 hPa Calm   2.6 km/h 82 % 0 mm
02:05 -4.2 °C -6.1 °C 34544 hPa Calm     82 % 0 mm
02:09 -4.2 °C -6.1 °C 34544 hPa Calm     82 % 0 mm
02:14 -4.3 °C -6.1 °C 34544 hPa Calm   2.6 km/h 82 % 0 mm
02:19 -4.3 °C -6.1 °C 34540.6 hPa Calm   5.1 km/h 82 % 0 mm
02:24 -4.3 °C -6.2 °C 34544 hPa NW 2.6 km/h 10.3 km/h 82 % 0 mm
02:29 -4.4 °C -6.2 °C 34544 hPa NW 2.6 km/h 10.3 km/h 82 % 0 mm
02:34 -4.6 °C -6.3 °C 34537.2 hPa NW 5.1 km/h 10.3 km/h 82 % 0 mm
02:39 -4.6 °C -6.6 °C 34537.2 hPa NW 5.1 km/h 10.3 km/h 81 % 0 mm
02:44 -4.7 °C -6.6 °C 34537.2 hPa NW 5.1 km/h 7.7 km/h 81 % 0 mm
02:49 -4.7 °C -6.8 °C 34537.2 hPa NW 5.1 km/h 10.3 km/h 80 % 0 mm
02:54 -4.8 °C -6.8 °C 34540.6 hPa NW 5.1 km/h 10.3 km/h 80 % 0 mm
02:59 -4.7 °C -6.8 °C 34540.6 hPa NW 5.1 km/h 10.3 km/h 80 % 0 mm
03:04 -4.7 °C -6.7 °C 34537.2 hPa NW 5.1 km/h 7.7 km/h 80 % 0 mm
03:09 -4.6 °C -6.6 °C 34537.2 hPa WNW 2.6 km/h 7.7 km/h 80 % 0 mm
03:14 -4.7 °C -6.8 °C 34537.2 hPa WNW 2.6 km/h 10.3 km/h 79 % 0 mm
03:19 -4.7 °C -6.9 °C 34537.2 hPa WNW 2.6 km/h 10.3 km/h 78 % 0 mm
03:24 -4.7 °C -7 °C 34533.8 hPa WNW 5.1 km/h 7.7 km/h 78 % 0 mm
03:29 -4.7 °C -7 °C 34530.4 hPa WNW 5.1 km/h 7.7 km/h 78 % 0 mm
03:34 -4.8 °C -7.1 °C 34530.4 hPa WNW 2.6 km/h 7.7 km/h 78 % 0 mm
03:39 -4.8 °C -7.2 °C 34527 hPa WNW 2.6 km/h 7.7 km/h 77 % 0 mm
03:44 -4.8 °C -7.3 °C 34523.7 hPa WNW 5.1 km/h 10.3 km/h 76 % 0 mm
03:49 -4.8 °C -7.5 °C 34523.7 hPa WNW 5.1 km/h 10.3 km/h 74 % 0 mm
03:54 -4.7 °C -7.4 °C 34523.7 hPa West 5.1 km/h 10.3 km/h 74 % 0 mm
03:59 -4.6 °C -7.1 °C 34523.7 hPa WNW 5.1 km/h 7.7 km/h 76 % 0 mm
04:05 -4.7 °C -7.3 °C 34523.7 hPa WNW 5.1 km/h 7.7 km/h 75 % 0 mm
04:09 -4.7 °C -7.3 °C 34523.7 hPa WNW 5.1 km/h 7.7 km/h 75 % 0 mm
04:14 -4.7 °C -7.3 °C 34520.3 hPa WNW 5.1 km/h 5.1 km/h 75 % 0 mm
04:19 -4.7 °C -7.3 °C 34520.3 hPa WNW 2.6 km/h 7.7 km/h 75 % 0 mm
04:24 -4.7 °C -7.3 °C 34516.9 hPa WNW 2.6 km/h 7.7 km/h 75 % 0 mm
04:30 -4.8 °C -7.4 °C 34513.5 hPa WNW 5.1 km/h 5.1 km/h 75 % 0 mm
04:34 -4.8 °C -7.4 °C 34510.1 hPa WNW 5.1 km/h 5.1 km/h 75 % 0 mm
04:39 -4.7 °C -7.4 °C 34513.5 hPa NW 2.6 km/h 7.7 km/h 74 % 0 mm
04:44 -4.8 °C -7.4 °C 34510.1 hPa NW 2.6 km/h 7.7 km/h 75 % 0 mm
04:50 -4.8 °C -7.3 °C 34513.5 hPa NW 5.1 km/h 10.3 km/h 76 % 0 mm
04:54 -4.8 °C -7.2 °C 34513.5 hPa NW 5.1 km/h 10.3 km/h 77 % 0 mm
04:59 -4.9 °C -7.3 °C 34513.5 hPa NW 5.1 km/h 7.7 km/h 77 % 0 mm
05:05 -4.9 °C -7.2 °C 34510.1 hPa NW 5.1 km/h 7.7 km/h 78 % 0 mm
05:09 -4.9 °C -7.2 °C 34513.5 hPa NW 5.1 km/h 10.3 km/h 78 % 0 mm
05:15 -4.9 °C -7.1 °C 34510.1 hPa NW 5.1 km/h 10.3 km/h 79 % 0 mm
05:19 -4.9 °C -7 °C 34506.7 hPa WNW 5.1 km/h 10.3 km/h 80 % 0 mm
05:24 -4.9 °C -6.8 °C 34506.7 hPa WNW 5.1 km/h 7.7 km/h 81 % 0 mm
05:29 -4.9 °C -6.6 °C 34506.7 hPa WNW 2.6 km/h 7.7 km/h 83 % 0 mm
05:35 -5 °C -6.6 °C 34503.3 hPa WNW 2.6 km/h 7.7 km/h 84 % 0 mm
05:39 -5 °C -6.6 °C 34500 hPa West 2.6 km/h 5.1 km/h 84 % 0 mm
05:44 -5.2 °C -7.1 °C 34506.7 hPa Calm   5.1 km/h 81 % 0 mm
05:49 -5.4 °C -7.4 °C 34503.3 hPa Calm   5.1 km/h 80 % 0 mm
05:54 -5.4 °C -7.5 °C 34503.3 hPa Calm   5.1 km/h 79 % 0 mm
05:59 -5.4 °C -7.7 °C 34506.7 hPa Calm   7.7 km/h 77 % 0 mm
06:04 -5.3 °C -7.7 °C 34506.7 hPa WNW 2.6 km/h 7.7 km/h 77 % 0 mm
06:09 -5.3 °C -7.7 °C 34506.7 hPa WNW 5.1 km/h 10.3 km/h 76 % 0 mm
06:14 -5.2 °C -7.6 °C 34510.1 hPa NW 5.1 km/h 12.9 km/h 77 % 0 mm
06:19 -5.2 °C -7.6 °C 34506.7 hPa NW 5.1 km/h 12.9 km/h 77 % 0 mm
06:24 -5.1 °C -7.4 °C 34506.7 hPa NW 7.7 km/h 12.9 km/h 77 % 0 mm
06:29 -5.1 °C -7.4 °C 34510.1 hPa NW 7.7 km/h 12.9 km/h 77 % 0 mm
06:34 -5.1 °C -7.4 °C 34513.5 hPa NW 7.7 km/h 10.3 km/h 77 % 0 mm
06:39 -5.1 °C -7.4 °C 34510.1 hPa NW 5.1 km/h 10.3 km/h 77 % 0 mm
06:44 -5.1 °C -7.4 °C 34513.5 hPa NW 5.1 km/h 10.3 km/h 77 % 0 mm
06:49 -5.1 °C -7.3 °C 34513.5 hPa NW 5.1 km/h 10.3 km/h 78 % 0 mm
06:54 -5.2 °C -7.4 °C 34513.5 hPa NW 5.1 km/h 7.7 km/h 78 % 0 mm
06:59 -5.2 °C -7.4 °C 34520.3 hPa NW 2.6 km/h 7.7 km/h 78 % 0 mm
07:04 -5.2 °C -7.4 °C 34520.3 hPa NW 2.6 km/h 10.3 km/h 78 % 0 mm
07:09 -5.2 °C -7.3 °C 34523.7 hPa NW 2.6 km/h 10.3 km/h 79 % 0 mm
07:14 -5.2 °C -7.4 °C 34523.7 hPa NW 5.1 km/h 10.3 km/h 78 % 0 mm
07:19 -5.2 °C -7.4 °C 34523.7 hPa NW 5.1 km/h 7.7 km/h 78 % 0 mm
07:24 -5.2 °C -7.6 °C 34523.7 hPa NW 5.1 km/h 7.7 km/h 77 % 0 mm
07:29 -5.2 °C -7.6 °C 34523.7 hPa NW 5.1 km/h 10.3 km/h 77 % 0 mm
07:34 -5.1 °C -7.6 °C 34527 hPa NW 5.1 km/h 10.3 km/h 76 % 0 mm
07:39 -5.1 °C -7.6 °C 34527 hPa NW 5.1 km/h 7.7 km/h 76 % 0 mm
07:44 -5.1 °C -7.6 °C 34527 hPa NW 5.1 km/h 7.7 km/h 76 % 0 mm
07:49 -5.1 °C -7.6 °C 34530.4 hPa NW 2.6 km/h 5.1 km/h 76 % 0 mm
07:54 -5.1 °C -7.6 °C 34527 hPa Calm   7.7 km/h 76 % 0 mm
07:59 -5.1 °C -7.6 °C 34533.8 hPa WNW 2.6 km/h 7.7 km/h 76 % 0 mm
08:04 -5.1 °C -7.4 °C 34533.8 hPa WNW 2.6 km/h 5.1 km/h 77 % 0 mm
08:09 -5.2 °C -7.4 °C 34530.4 hPa West 2.6 km/h 7.7 km/h 78 % 0 mm
08:14 -5.2 °C -7.4 °C 34537.2 hPa West 2.6 km/h 7.7 km/h 78 % 0 mm
08:19 -5.2 °C -7.4 °C 34533.8 hPa West 2.6 km/h 5.1 km/h 78 % 0 mm
08:24 -5.1 °C -7.3 °C 34537.2 hPa West 2.6 km/h 5.1 km/h 78 % 0 mm
08:29 -5.1 °C -7.3 °C 34537.2 hPa West 2.6 km/h 5.1 km/h 78 % 0 mm
08:34 -5.1 °C -7.4 °C 34540.6 hPa WNW 2.6 km/h 10.3 km/h 77 % 0 mm
08:39 -4.9 °C -7.3 °C 34540.6 hPa NW 5.1 km/h 10.3 km/h 77 % 0 mm
08:44 -4.9 °C -7.4 °C 34540.6 hPa WNW 2.6 km/h 7.7 km/h 76 % 0 mm
08:49 -4.8 °C -7.3 °C 34544 hPa WNW 2.6 km/h 7.7 km/h 76 % 0 mm
08:54 -4.8 °C -7.4 °C 34540.6 hPa WNW 2.6 km/h 7.7 km/h 75 % 0 mm
08:59 -4.7 °C -7.3 °C 34544 hPa WNW 2.6 km/h 7.7 km/h 75 % 0 mm
09:04 -4.7 °C -7.4 °C 34547.4 hPa WNW 2.6 km/h 7.7 km/h 74 % 0 mm
09:09 -4.6 °C -7.2 °C 34547.4 hPa WNW 2.6 km/h 7.7 km/h 75 % 0 mm
09:14 -4.6 °C -7.3 °C 34544 hPa WNW 2.6 km/h 7.7 km/h 74 % 0 mm
09:19 -4.5 °C -7.2 °C 34547.4 hPa WNW 2.6 km/h 7.7 km/h 74 % 0 mm
09:24 -4.3 °C -7.2 °C 34550.7 hPa NW 2.6 km/h 10.3 km/h 73 % 0 mm
09:29 -4.3 °C -7.1 °C 34550.7 hPa NW 5.1 km/h 10.3 km/h 73 % 0 mm
09:34 -4.2 °C -7.2 °C 34554.1 hPa NW 5.1 km/h 10.3 km/h 72 % 0 mm
09:39 -4.1 °C -7.2 °C 34554.1 hPa NW 5.1 km/h 10.3 km/h 71 % 0 mm
09:44 -4.1 °C -7.4 °C 34560.9 hPa NW 5.1 km/h 10.3 km/h 69 % 0 mm
09:49 -3.9 °C -7.4 °C 34564.3 hPa NW 5.1 km/h 7.7 km/h 68 % 0 mm
09:54 -3.8 °C -7.6 °C 34560.9 hPa WNW 2.6 km/h 5.1 km/h 66 % 0 mm
09:59 -3.7 °C -7.4 °C 34560.9 hPa WNW 2.6 km/h 5.1 km/h 66 % 0 mm
10:04 -3.5 °C -7.4 °C 34564.3 hPa West 2.6 km/h 5.1 km/h 65 % 0 mm
10:09 -3.4 °C -7.3 °C 34564.3 hPa West 2.6 km/h 5.1 km/h 65 % 0 mm
10:14 -3.1 °C -7.1 °C 34567.7 hPa West 2.6 km/h 5.1 km/h 65 % 0 mm
10:19 -2.9 °C -7.3 °C 34567.7 hPa SW 2.6 km/h 5.1 km/h 62 % 0 mm
10:24 -2.7 °C -7.2 °C 34571.1 hPa SW 2.6 km/h 5.1 km/h 61 % 0 mm
10:29 -2.6 °C -7.4 °C 34571.1 hPa West 2.6 km/h 7.7 km/h 59 % 0 mm
10:34 -2.6 °C -7.3 °C 34571.1 hPa Calm   7.7 km/h 60 % 0 mm
10:39 -2.4 °C -7.3 °C 34574.4 hPa Calm   2.6 km/h 59 % 0 mm
10:44 -2.4 °C -7.6 °C 34571.1 hPa Calm   5.1 km/h 57 % 0 mm
10:49 -2.3 °C -7.5 °C 34577.8 hPa Calm   5.1 km/h 57 % 0 mm
10:54 -2.3 °C -7.9 °C 34581.2 hPa Calm   5.1 km/h 54 % 0 mm
10:59 -2.3 °C -8.3 °C 34577.8 hPa Calm   5.1 km/h 52 % 0 mm
11:04 -2.2 °C -8.1 °C 34581.2 hPa NW 2.6 km/h 5.1 km/h 53 % 0 mm
11:09 -2.1 °C -8.1 °C 34584.6 hPa NW 2.6 km/h 7.7 km/h 52 % 0 mm
11:14 -2.2 °C -8.2 °C 34584.6 hPa NW 2.6 km/h 10.3 km/h 52 % 0 mm
11:19 -2.1 °C -8.2 °C 34588 hPa WNW 2.6 km/h 10.3 km/h 51 % 0 mm
11:24 -1.8 °C -8 °C 34581.2 hPa WNW 2.6 km/h 7.7 km/h 51 % 0 mm
11:29 -1.6 °C -8.2 °C 34584.6 hPa SW 2.6 km/h 5.1 km/h 49 % 0 mm
11:34 -1.6 °C -6.6 °C 34581.2 hPa SSE 2.6 km/h 7.7 km/h 58 % 0 mm
11:39 -1.7 °C -6.7 °C 34581.2 hPa SE 2.6 km/h 12.9 km/h 58 % 0 mm
11:44 -1.9 °C -7.1 °C 34584.6 hPa SE 5.1 km/h 12.9 km/h 57 % 0 mm
11:49 -2.1 °C -7.1 °C 34584.6 hPa SE 7.7 km/h 10.3 km/h 58 % 0 mm
11:54 -2 °C -7.2 °C 34588 hPa ESE 5.1 km/h 10.3 km/h 57 % 0 mm
11:59 -2.1 °C -7.3 °C 34588 hPa ESE 5.1 km/h 10.3 km/h 57 % 0 mm
12:04 -2 °C -7.1 °C 34588 hPa ESE 7.7 km/h 10.3 km/h 58 % 0 mm
12:09 -1.8 °C -7.1 °C 34588 hPa East 5.1 km/h 10.3 km/h 57 % 0 mm
12:14 -2 °C -7.1 °C 34588 hPa ENE 5.1 km/h 12.9 km/h 58 % 0 mm
12:19 -2.1 °C -7.1 °C 34584.6 hPa ENE 5.1 km/h 12.9 km/h 58 % 0 mm
12:24 -2.1 °C -7.1 °C 34588 hPa East 5.1 km/h 10.3 km/h 58 % 0 mm
12:29 -1.9 °C -7.1 °C 34584.6 hPa East 5.1 km/h 12.9 km/h 57 % 0 mm
12:34 -1.9 °C -7.1 °C 34581.2 hPa East 5.1 km/h 12.9 km/h 57 % 0 mm
12:39 -1.7 °C -7.2 °C 34581.2 hPa ENE 5.1 km/h 12.9 km/h 55 % 0 mm
12:44 -1.6 °C -7.4 °C 34581.2 hPa ENE 7.7 km/h 15.6 km/h 53 % 0 mm
12:49 -1.8 °C -7.6 °C 34577.8 hPa ENE 7.7 km/h 15.6 km/h 53 % 0 mm
12:54 -1.6 °C -7.4 °C 34577.8 hPa ENE 7.7 km/h 15.6 km/h 53 % 0 mm
12:59 -1.5 °C -7.6 °C 34574.4 hPa ENE 7.7 km/h 12.9 km/h 52 % 0 mm
13:04 -1.5 °C -7.6 °C 34574.4 hPa ENE 5.1 km/h 12.9 km/h 52 % 0 mm
13:09 -1.3 °C -7.7 °C 34577.8 hPa NE 5.1 km/h 12.9 km/h 50 % 0 mm
13:14 -1.2 °C -8.1 °C 34574.4 hPa East 5.1 km/h 12.9 km/h 47 % 0 mm
13:19 -1.3 °C -8.8 °C 34571.1 hPa East 5.1 km/h 15.6 km/h 44 % 0 mm
13:24 -1.2 °C -8.6 °C 34571.1 hPa East 7.7 km/h 15.6 km/h 45 % 0 mm
13:29 -1.1 °C -8.2 °C 34571.1 hPa ENE 7.7 km/h 12.9 km/h 46 % 0 mm
13:34 -0.9 °C -8.1 °C 34567.7 hPa East 5.1 km/h 10.3 km/h 46 % 0 mm
13:39 -0.8 °C -7.9 °C 34564.3 hPa SE 5.1 km/h 15.6 km/h 46 % 0 mm
13:44 -0.8 °C -8.4 °C 34564.3 hPa SE 7.7 km/h 15.6 km/h 44 % 0 mm
13:49 -0.7 °C -8.4 °C 34564.3 hPa SE 7.7 km/h 12.9 km/h 43 % 0 mm
13:54 -0.7 °C -8.4 °C 34567.7 hPa SE 5.1 km/h 15.6 km/h 43 % 0 mm
13:59 -1 °C -8.6 °C 34560.9 hPa ESE 5.1 km/h 20.8 km/h 44 % 0 mm
14:04 -1.1 °C -7.9 °C 34560.9 hPa ESE 10.3 km/h 20.8 km/h 48 % 0 mm
14:09 -1.2 °C -7.6 °C 34557.5 hPa ESE 12.9 km/h 18.2 km/h 50 % 0 mm
14:14 -1.3 °C -7.9 °C 34557.5 hPa ESE 12.9 km/h 18.2 km/h 49 % 0 mm
14:19 -1.3 °C -8.1 °C 34554.1 hPa ESE 10.3 km/h 18.2 km/h 48 % 0 mm
14:24 -1.2 °C -8 °C 34550.7 hPa East 10.3 km/h 15.6 km/h 48 % 0 mm
14:29 -1.2 °C -7.7 °C 34550.7 hPa East 10.3 km/h 18.2 km/h 49 % 0 mm
14:34 -1.2 °C -8 °C 34547.4 hPa East 7.7 km/h 18.2 km/h 48 % 0 mm
14:39 -1.2 °C -8.9 °C 34544 hPa ESE 7.7 km/h 18.2 km/h 43 % 0 mm
14:44 -1.2 °C -8.2 °C 34540.6 hPa ESE 7.7 km/h 20.8 km/h 47 % 0 mm
14:49 -1.1 °C -7.8 °C 34533.8 hPa ESE 10.3 km/h 20.8 km/h 48 % 0 mm
14:54 -1.1 °C -7.7 °C 34530.4 hPa ESE 10.3 km/h 15.6 km/h 49 % 0 mm
14:59 -1.1 °C -7.4 °C 34530.4 hPa ESE 10.3 km/h 15.6 km/h 50 % 0 mm
15:04 -1.1 °C -8.2 °C 34530.4 hPa ESE 10.3 km/h 18.2 km/h 46 % 0 mm
15:09 -1.2 °C -8.5 °C 34527 hPa ESE 10.3 km/h 18.2 km/h 45 % 0 mm
15:14 -1.1 °C -8.4 °C 34523.7 hPa ESE 10.3 km/h 15.6 km/h 45 % 0 mm
15:19 -1.1 °C -8.3 °C 34523.7 hPa ESE 10.3 km/h 18.2 km/h 46 % 0 mm
15:24 -1 °C -8.2 °C 34520.3 hPa East 10.3 km/h 18.2 km/h 46 % 0 mm
15:29 -1 °C -8.4 °C 34520.3 hPa East 10.3 km/h 18.2 km/h 45 % 0 mm
15:34 -1.1 °C -7.8 °C 34523.7 hPa East 10.3 km/h 20.8 km/h 48 % 0 mm
15:39 -0.9 °C -8.1 °C 34523.7 hPa East 10.3 km/h 20.8 km/h 46 % 0 mm
15:44 -0.9 °C -8.4 °C 34520.3 hPa East 10.3 km/h 15.6 km/h 44 % 0 mm
15:49 -1.1 °C -8.2 °C 34520.3 hPa East 7.7 km/h 23.3 km/h 46 % 0 mm
15:54 -1.4 °C -8.4 °C 34523.7 hPa East 10.3 km/h 23.3 km/h 47 % 0 mm
15:59 -1.3 °C -8.7 °C 34520.3 hPa ESE 12.9 km/h 20.8 km/h 45 % 0 mm
16:04 -1.3 °C -7.9 °C 34516.9 hPa ESE 12.9 km/h 20.8 km/h 49 % 0 mm
16:09 -1.2 °C -7.9 °C 34513.5 hPa East 10.3 km/h 20.8 km/h 48 % 0 mm
16:14 -1.2 °C -8.2 °C 34513.5 hPa East 10.3 km/h 18.2 km/h 47 % 0 mm
16:19 -1.2 °C -7.6 °C 34513.5 hPa East 7.7 km/h 18.2 km/h 50 % 0 mm
16:24 -1.2 °C -7.8 °C 34510.1 hPa ESE 7.7 km/h 18.2 km/h 49 % 0 mm
16:29 -1.3 °C -7.7 °C 34513.5 hPa ESE 10.3 km/h 18.2 km/h 50 % 0 mm
16:34 -1.3 °C -8.3 °C 34510.1 hPa ESE 10.3 km/h 18.2 km/h 47 % 0 mm
16:39 -1.3 °C -7.9 °C 34506.7 hPa East 10.3 km/h 18.2 km/h 49 % 0 mm
16:44 -1.2 °C -8.5 °C 34510.1 hPa East 10.3 km/h 18.2 km/h 45 % 0 mm
16:49 -1.2 °C -9.9 °C 34506.7 hPa ESE 7.7 km/h 18.2 km/h 38 % 0 mm
16:54 -1.2 °C -9.4 °C 34506.7 hPa ESE 10.3 km/h 20.8 km/h 41 % 0 mm
16:59 -1.2 °C -9.6 °C 34506.7 hPa East 12.9 km/h 23.3 km/h 40 % 0 mm
17:04 -1.1 °C -10.4 °C 34510.1 hPa East 12.9 km/h 23.3 km/h 36 % 0 mm
Ulpukkaniemen harrastesääasema
Terveisin Weather Underground - 2.5 mb

Alkuperäinen skripti  Jim McMurry - jmcmurry@mwt.net Sovitettu myös templatelle  Wim van der Kuil - Leuven-Template.eu

Laitteet joita käytämme:

Sääasema
WS3083

Sääasemaohjelma
Cumulus

Sääaseman tietokone
RaspberryPI

Palveluntarjoaja
Suncomet

WS3083

Cumulus

RaspberryPI

Suncomet